Time;durP1;ratioP1;P1;durP2;ratioP2;P2;SDS_P1;SDS_P2;PMS_P1;PMS_P2;Temp;Humidity;BMP_temperature;BMP_pressure;BME280_temperature;BME280_humidity;BME280_pressure;Samples;Min_cycle;Max_cycle;Signal;HPM_P1;HPM_P2
2021/01/22 00:01:28;;;;;;;10.73;3.20;;;;;;;4.40;100.00;99266.78;5071326;28;20045;-64
2021/01/22 00:03:54;;;;;;;12.10;3.20;;;;;;;4.38;100.00;99274.31;5071076;28;20550;-63
2021/01/22 00:06:19;;;;;;;9.50;4.50;;;;;;;4.38;100.00;99278.91;5071032;28;20041;-65
2021/01/22 00:08:45;;;;;;;6.63;2.97;;;;;;;4.35;100.00;99274.78;5071121;28;20094;-65
2021/01/22 00:11:11;;;;;;;7.82;3.13;;;;;;;4.32;100.00;99272.53;5071227;28;20052;-65
2021/01/22 00:13:37;;;;;;;7.47;3.25;;;;;;;4.30;100.00;99265.75;5071104;28;20033;-65
2021/01/22 00:16:03;;;;;;;10.80;3.30;;;;;;;4.26;100.00;99265.41;5070970;28;20044;-65
2021/01/22 00:18:28;;;;;;;11.70;3.03;;;;;;;4.24;100.00;99272.94;5071032;28;20048;-65
2021/01/22 00:20:54;;;;;;;11.93;4.20;;;;;;;4.21;100.00;99268.84;5070729;28;20118;-65
2021/01/22 00:23:20;;;;;;;7.93;3.95;;;;;;;4.18;100.00;99274.72;5071114;28;20040;-64
2021/01/22 00:25:45;;;;;;;11.18;4.53;;;;;;;4.15;100.00;99277.06;5070849;28;20101;-66
2021/01/22 00:28:11;;;;;;;12.48;4.65;;;;;;;4.12;100.00;99280.25;5071089;28;20046;-63
2021/01/22 00:30:37;;;;;;;10.73;4.85;;;;;;;4.08;100.00;99277.19;5070099;28;20478;-65
2021/01/22 00:33:03;;;;;;;9.85;4.00;;;;;;;4.05;100.00;99284.97;5071208;28;20040;-65
2021/01/22 00:35:29;;;;;;;14.98;4.47;;;;;;;4.04;100.00;99278.75;5070750;28;20040;-64
2021/01/22 00:37:54;;;;;;;8.57;4.05;;;;;;;4.02;100.00;99285.44;5070774;28;20048;-65
2021/01/22 00:40:20;;;;;;;11.75;5.25;;;;;;;4.01;100.00;99289.22;5070940;28;20040;-64
2021/01/22 00:42:45;;;;;;;9.02;4.75;;;;;;;3.99;100.00;99281.31;5070635;28;20436;-64
2021/01/22 00:45:11;;;;;;;12.32;4.50;;;;;;;3.97;100.00;99288.84;5070715;28;20040;-64
2021/01/22 00:47:37;;;;;;;11.98;4.15;;;;;;;3.97;100.00;99283.44;5070732;28;20054;-65
2021/01/22 00:50:04;;;;;;;6.85;4.30;;;;;;;3.95;100.00;99288.25;5070337;28;20462;-65
2021/01/22 00:52:29;;;;;;;10.05;4.13;;;;;;;3.91;100.00;99282.53;5070729;28;20036;-64
2021/01/22 00:54:55;;;;;;;9.88;4.47;;;;;;;3.92;100.00;99292.25;5052603;28;20055;-65
2021/01/22 00:57:21;;;;;;;11.63;4.78;;;;;;;3.91;100.00;99293.31;5070796;28;20064;-64
2021/01/22 00:59:47;;;;;;;9.75;3.70;;;;;;;3.90;100.00;99298.97;5070368;28;20133;-65
2021/01/22 01:02:13;;;;;;;8.60;4.28;;;;;;;3.89;100.00;99303.53;5070561;28;20475;-65
2021/01/22 01:04:38;;;;;;;9.18;4.45;;;;;;;3.87;100.00;99300.25;5070447;28;20048;-64
2021/01/22 01:07:04;;;;;;;8.38;3.85;;;;;;;3.86;100.00;99303.19;5070464;28;20052;-64
2021/01/22 01:09:30;;;;;;;11.88;4.32;;;;;;;3.84;100.00;99306.13;5052607;28;20162;-64
2021/01/22 01:11:55;;;;;;;7.88;4.00;;;;;;;3.87;100.00;99305.66;5070482;28;20075;-64
2021/01/22 01:14:21;;;;;;;9.32;4.45;;;;;;;3.89;100.00;99308.94;5070448;28;20090;-64
2021/01/22 01:16:47;;;;;;;9.52;4.05;;;;;;;3.91;100.00;99317.63;5070419;28;20426;-65
2021/01/22 01:19:12;;;;;;;13.50;3.97;;;;;;;3.90;100.00;99310.59;5070737;28;20052;-65
2021/01/22 01:21:38;;;;;;;11.63;4.25;;;;;;;3.91;100.00;99316.81;5070376;28;20043;-65
2021/01/22 01:24:03;;;;;;;11.20;3.80;;;;;;;3.90;100.00;99304.38;5070042;28;20493;-65
2021/01/22 01:26:29;;;;;;;7.47;3.90;;;;;;;3.90;100.00;99313.28;5070435;28;20037;-65
2021/01/22 01:28:55;;;;;;;11.18;4.47;;;;;;;3.88;100.00;99312.72;5070531;28;20402;-65
2021/01/22 01:31:20;;;;;;;11.05;4.18;;;;;;;3.87;100.00;99305.66;5070232;28;20521;-64
2021/01/22 01:33:46;;;;;;;11.80;4.03;;;;;;;3.85;100.00;99310.47;5070228;28;20474;-63
2021/01/22 01:36:12;;;;;;;8.48;3.78;;;;;;;3.85;100.00;99302.38;5070200;28;20037;-64
2021/01/22 01:38:37;;;;;;;10.27;3.30;;;;;;;3.84;100.00;99306.13;5070072;28;20724;-65
2021/01/22 01:41:03;;;;;;;6.30;3.95;;;;;;;3.83;100.00;99309.91;5071625;28;20486;-64
2021/01/22 01:43:29;;;;;;;7.85;3.58;;;;;;;3.82;100.00;99305.56;5073827;28;20505;-65
2021/01/22 01:45:54;;;;;;;18.40;4.90;;;;;;;3.80;100.00;99310.34;5073745;28;20075;-65
2021/01/22 01:48:21;;;;;;;10.10;4.40;;;;;;;3.78;100.00;99312.47;5073805;28;20044;-63
2021/01/22 01:50:48;;;;;;;11.18;3.60;;;;;;;3.74;100.00;99316.69;5055641;28;20036;-65
2021/01/22 01:53:15;;;;;;;12.15;4.97;;;;;;;3.71;100.00;99317.16;5073861;28;20032;-64
2021/01/22 01:55:41;;;;;;;12.10;4.30;;;;;;;3.68;100.00;99323.03;5073533;28;20036;-65
2021/01/22 01:58:07;;;;;;;9.23;4.70;;;;;;;3.63;100.00;99320.19;5055595;28;20051;-64
2021/01/22 02:00:34;;;;;;;9.20;4.80;;;;;;;3.61;100.00;99328.53;5073315;28;20078;-63
2021/01/22 02:03:01;;;;;;;11.68;4.82;;;;;;;3.58;100.00;99318.22;5073273;28;20069;-64
2021/01/22 02:05:28;;;;;;;12.40;4.80;;;;;;;3.56;100.00;99330.31;5073582;28;20040;-65
2021/01/22 02:07:53;;;;;;;11.85;4.38;;;;;;;3.54;100.00;99337.81;5073559;28;20402;-66
2021/01/22 02:10:19;;;;;;;9.15;4.10;;;;;;;3.52;100.00;99329.13;5073546;28;20037;-64
2021/01/22 02:12:47;;;;;;;7.93;4.05;;;;;;;3.50;100.00;99325.84;5073310;28;20438;-64
2021/01/22 02:15:14;;;;;;;9.25;3.80;;;;;;;3.49;100.00;99335.81;5073398;28;20494;-64
2021/01/22 02:17:42;;;;;;;10.75;4.30;;;;;;;3.50;100.00;99336.66;5073142;28;20040;-64
2021/01/22 02:20:31;;;;;;;12.52;4.43;;;;;;;3.49;100.00;99340.41;5073099;28;20459;-64
2021/01/22 02:22:57;;;;;;;15.30;5.43;;;;;;;3.48;100.00;99338.75;5073091;28;20368;-64
2021/01/22 02:25:30;;;;;;;13.18;4.63;;;;;;;3.49;100.00;99353.91;5073152;28;20036;-65
2021/01/22 02:27:57;;;;;;;11.90;4.85;;;;;;;3.50;100.00;99352.84;5073004;28;20490;-64
2021/01/22 02:30:22;;;;;;;13.45;6.07;;;;;;;3.51;100.00;99354.50;5054940;28;20459;-64
2021/01/22 02:32:48;;;;;;;13.13;6.00;;;;;;;3.49;100.00;99353.91;5073106;28;20039;-63
2021/01/22 02:35:17;;;;;;;16.27;5.60;;;;;;;3.46;100.00;99357.03;5054786;28;20052;-64
2021/01/22 02:37:47;;;;;;;9.68;5.13;;;;;;;3.43;100.00;99357.50;5072942;28;20055;-64
2021/01/22 02:40:14;;;;;;;12.25;4.82;;;;;;;3.40;100.00;99357.97;5054720;28;20044;-64
2021/01/22 02:42:41;;;;;;;8.70;5.90;;;;;;;3.38;100.00;99354.69;5072715;28;20032;-65
2021/01/22 02:45:09;;;;;;;12.98;5.05;;;;;;;3.37;100.00;99358.44;5072689;28;20051;-65
2021/01/22 02:47:36;;;;;;;11.95;5.28;;;;;;;3.36;100.00;99356.81;5072629;28;20036;-64
2021/01/22 02:50:05;;;;;;;17.95;6.78;;;;;;;3.32;100.00;99362.66;5072505;28;20049;-64
2021/01/22 02:52:30;;;;;;;9.98;5.30;;;;;;;3.30;100.00;99366.66;5071959;28;20086;-65
2021/01/22 02:54:56;;;;;;;13.85;5.43;;;;;;;3.28;100.00;99366.03;5072528;28;20040;-65
2021/01/22 02:57:37;;;;;;;10.20;5.18;;;;;;;3.25;100.00;99367.31;5072367;28;20082;-65
2021/01/22 03:00:08;;;;;;;10.80;5.22;;;;;;;3.24;100.00;99376.47;5054200;28;20071;-65
2021/01/22 03:02:44;;;;;;;11.68;5.00;;;;;;;3.22;100.00;99365.09;5072310;28;20040;-65
2021/01/22 03:05:14;;;;;;;9.30;4.30;;;;;;;3.21;100.00;99376.13;5072458;28;20040;-65
2021/01/22 03:07:47;;;;;;;9.23;4.30;;;;;;;3.18;100.00;99366.63;5072187;28;20035;-64
2021/01/22 03:10:17;;;;;;;9.07;3.97;;;;;;;3.16;100.00;99373.28;5072193;28;20032;-64
2021/01/22 03:12:47;;;;;;;8.65;4.47;;;;;;;3.14;100.00;99378.91;5054231;28;20032;-64
2021/01/22 03:15:15;;;;;;;15.13;5.03;;;;;;;3.13;100.00;99379.16;5072274;28;20037;-64
2021/01/22 03:17:41;;;;;;;9.25;5.00;;;;;;;3.12;100.00;99378.31;5072135;28;20040;-64
2021/01/22 03:20:12;;;;;;;15.85;5.50;;;;;;;3.11;100.00;99381.22;5071939;28;20072;-64
2021/01/22 03:22:38;;;;;;;13.75;5.10;;;;;;;3.09;100.00;99384.16;5004490;28;20449;-64
2021/01/22 03:25:04;;;;;;;7.88;5.32;;;;;;;3.08;100.00;99382.53;5072049;28;20089;-64
2021/01/22 03:27:29;;;;;;;15.15;4.63;;;;;;;3.09;100.00;99394.94;5071925;28;20048;-64
2021/01/22 03:29:55;;;;;;;15.60;5.63;;;;;;;3.08;100.00;99393.31;5071846;28;20097;-64
2021/01/22 03:32:21;;;;;;;7.80;4.72;;;;;;;3.08;100.00;99401.41;5071794;28;20123;-64
2021/01/22 03:34:46;;;;;;;11.63;5.30;;;;;;;3.07;100.00;99397.06;5071683;28;20048;-64
2021/01/22 03:37:12;;;;;;;10.45;5.68;;;;;;;3.06;100.00;99400.81;5071770;28;20040;-64
2021/01/22 03:39:37;;;;;;;12.65;4.85;;;;;;;3.06;100.00;99399.97;5071943;28;20043;-64
2021/01/22 03:42:04;;;;;;;13.25;5.88;;;;;;;3.06;100.00;99400.81;5071762;28;20407;-65
2021/01/22 03:44:30;;;;;;;10.07;4.93;;;;;;;3.07;100.00;99407.84;5071420;28;20085;-64
2021/01/22 03:46:55;;;;;;;9.93;4.63;;;;;;;3.06;100.00;99411.59;5071429;28;20044;-65
2021/01/22 03:49:21;;;;;;;11.30;4.60;;;;;;;3.03;100.00;99412.06;5071340;28;20047;-65
2021/01/22 03:51:47;;;;;;;11.85;4.40;;;;;;;3.01;100.00;99408.75;5071421;28;20048;-65
2021/01/22 03:54:12;;;;;;;11.48;4.55;;;;;;;3.00;100.00;99405.25;5071402;28;20041;-64
2021/01/22 03:56:38;;;;;;;9.13;4.72;;;;;;;2.99;100.00;99410.88;5071232;28;20127;-65
2021/01/22 03:59:03;;;;;;;13.73;4.97;;;;;;;2.98;100.00;99415.44;5071127;28;20056;-64
2021/01/22 04:01:31;;;;;;;9.63;4.70;;;;;;;2.98;100.00;99420.03;5053307;28;20044;-64
2021/01/22 04:03:57;;;;;;;8.77;4.70;;;;;;;2.96;100.00;99412.16;5070449;28;20089;-64
2021/01/22 04:06:22;;;;;;;14.77;4.88;;;;;;;2.98;100.00;99420.03;5070951;28;20131;-65
2021/01/22 04:08:49;;;;;;;8.10;3.72;;;;;;;2.97;100.00;99419.19;5071157;28;20036;-64
2021/01/22 04:11:15;;;;;;;6.47;3.88;;;;;;;2.96;100.00;99422.94;5071112;28;20119;-64
2021/01/22 04:13:41;;;;;;;8.38;4.03;;;;;;;2.97;100.00;99423.75;5053090;28;20493;-64
2021/01/22 04:16:07;;;;;;;9.32;4.78;;;;;;;2.95;100.00;99420.44;5070955;28;20032;-64
2021/01/22 04:18:32;;;;;;;10.60;4.70;;;;;;;2.96;100.00;99422.13;5070986;28;20109;-64
2021/01/22 04:20:58;;;;;;;13.43;4.38;;;;;;;2.95;100.00;99420.44;5070884;28;20398;-64
2021/01/22 04:23:23;;;;;;;9.70;4.35;;;;;;;2.95;100.00;99425.84;5070898;28;20148;-66
2021/01/22 04:25:49;;;;;;;11.48;4.18;;;;;;;2.95;100.00;99431.22;5071062;28;20043;-64
2021/01/22 04:28:15;;;;;;;13.65;5.32;;;;;;;2.95;100.00;99428.53;5071291;28;20154;-64
2021/01/22 04:30:40;;;;;;;7.80;3.75;;;;;;;2.96;100.00;99432.91;5070808;28;20044;-64
2021/01/22 04:33:06;;;;;;;7.32;4.45;;;;;;;2.95;100.00;99442.03;5071290;28;20037;-65
2021/01/22 04:35:32;;;;;;;10.30;4.13;;;;;;;2.94;100.00;99429.59;5070724;28;20122;-65
2021/01/22 04:37:58;;;;;;;11.55;4.57;;;;;;;2.92;100.00;99434.38;5070826;28;20064;-65
2021/01/22 04:40:25;;;;;;;11.23;5.13;;;;;;;2.91;100.00;99440.84;5070741;28;20063;-64
2021/01/22 04:42:51;;;;;;;9.07;4.95;;;;;;;2.90;100.00;99439.19;5071035;28;20040;-64
2021/01/22 04:45:17;;;;;;;12.98;4.72;;;;;;;2.88;100.00;99441.28;5070878;28;20391;-63
2021/01/22 04:47:43;;;;;;;9.02;4.72;;;;;;;2.86;100.00;99438.00;5070714;28;20842;-64
2021/01/22 04:50:10;;;;;;;8.75;4.57;;;;;;;2.86;100.00;99446.91;5070309;28;20627;-65
2021/01/22 04:52:36;;;;;;;11.77;4.32;;;;;;;2.86;100.00;99448.78;5070898;28;20383;-65
2021/01/22 04:55:05;;;;;;;10.70;4.47;;;;;;;2.85;100.00;99452.53;5070608;28;20106;-64
2021/01/22 04:57:33;;;;;;;9.02;4.25;;;;;;;2.82;100.00;99450.28;5070737;28;20508;-64
2021/01/22 05:00:00;;;;;;;14.40;4.95;;;;;;;2.82;100.00;99450.28;5070392;28;20077;-64
2021/01/22 05:02:26;;;;;;;14.77;4.82;;;;;;;2.81;100.00;99451.34;5052475;28;20043;-63
2021/01/22 05:04:55;;;;;;;12.00;4.65;;;;;;;2.82;100.00;99450.28;5070568;28;20045;-66
2021/01/22 05:07:22;;;;;;;10.90;4.20;;;;;;;2.83;100.00;99454.63;5070457;28;20032;-65
2021/01/22 05:09:48;;;;;;;10.77;3.97;;;;;;;2.83;100.00;99460.03;5070500;28;20036;-64
2021/01/22 05:12:14;;;;;;;9.88;4.22;;;;;;;2.83;100.00;99454.63;5070408;28;20520;-65
2021/01/22 05:14:39;;;;;;;9.60;4.72;;;;;;;2.84;100.00;99461.66;5070957;28;20116;-64
2021/01/22 05:17:09;;;;;;;10.75;4.35;;;;;;;2.83;100.00;99454.63;5073403;28;20048;-65
2021/01/22 05:19:37;;;;;;;11.55;4.75;;;;;;;2.84;100.00;99461.66;5074360;28;20032;-64
2021/01/22 05:22:04;;;;;;;8.00;4.28;;;;;;;2.84;100.00;99458.97;5074260;28;20271;-64
2021/01/22 05:24:30;;;;;;;8.35;4.88;;;;;;;2.87;100.00;99463.91;5074117;28;20077;-64
2021/01/22 05:27:14;;;;;;;8.27;5.05;;;;;;;2.89;100.00;99475.28;5074171;28;20111;-64
2021/01/22 05:29:42;;;;;;;15.50;5.47;;;;;;;2.91;100.00;99473.19;5074116;28;20036;-65
2021/01/22 05:32:24;;;;;;;8.55;4.68;;;;;;;2.89;100.00;99475.28;5074039;28;20035;-64
2021/01/22 05:34:50;;;;;;;8.38;5.28;;;;;;;2.91;100.00;99489.38;5056058;28;20091;-64
2021/01/22 05:37:17;;;;;;;9.40;4.65;;;;;;;2.91;100.00;99473.19;5073932;28;20058;-64
2021/01/22 05:39:42;;;;;;;11.90;4.60;;;;;;;2.94;100.00;99483.53;5073827;28;20052;-66
2021/01/22 05:42:09;;;;;;;7.72;4.55;;;;;;;2.97;100.00;99477.69;5073654;28;20049;-64
2021/01/22 05:44:35;;;;;;;9.50;5.43;;;;;;;3.00;100.00;99482.63;5073801;28;20029;-64
2021/01/22 05:47:04;;;;;;;8.82;4.63;;;;;;;3.00;100.00;99478.06;5073819;28;20035;-65
2021/01/22 05:49:31;;;;;;;11.55;6.05;;;;;;;3.03;100.00;99476.78;5073714;28;20037;-65
2021/01/22 05:51:57;;;;;;;7.70;5.20;;;;;;;3.06;100.00;99475.50;5055881;28;20515;-64
2021/01/22 05:54:52;;;;;;;9.27;5.10;;;;;;;3.07;100.00;99472.56;5073601;28;20045;-64
2021/01/22 05:57:18;;;;;;;;;;;;;;;3.09;100.00;99473.16;4992049;28;20061;-66
2021/01/22 05:59:44;;;;;;;11.52;5.75;;;;;;;3.08;100.00;99479.63;4991660;28;19925;-65
2021/01/22 06:02:29;;;;;;;10.63;5.07;;;;;;;3.08;100.00;99481.50;5057419;28;20047;-65
2021/01/22 06:05:08;;;;;;;10.13;5.55;;;;;;;3.07;100.00;99499.53;5074067;28;20091;-64
2021/01/22 06:07:38;;;;;;;14.50;5.68;;;;;;;3.08;100.00;99495.81;5073458;28;20059;-65
2021/01/22 06:10:22;;;;;;;11.00;5.70;;;;;;;3.08;100.00;99492.28;5055725;28;20040;-64
2021/01/22 06:12:52;;;;;;;11.02;6.03;;;;;;;3.04;100.00;99491.91;5073348;28;20044;-65
2021/01/22 06:15:21;;;;;;;12.13;6.13;;;;;;;3.01;100.00;99489.69;5073317;28;20032;-63
2021/01/22 06:17:50;;;;;;;10.38;5.75;;;;;;;2.97;100.00;99492.00;5073315;28;20036;-64
2021/01/22 06:20:17;;;;;;;12.60;6.05;;;;;;;2.95;100.00;99495.94;5073143;28;20048;-64
2021/01/22 06:22:52;;;;;;;11.95;6.47;;;;;;;2.92;100.00;99501.81;5073157;28;20498;-65
2021/01/22 06:25:18;;;;;;;;;;;;;;;2.90;100.00;99506.59;5073596;28;20036;-63
2021/01/22 06:27:46;;;;;;;10.60;6.30;;;;;;;2.87;100.00;99504.34;5071940;28;19924;-64
2021/01/22 06:30:15;;;;;;;15.68;7.32;;;;;;;2.84;100.00;99510.22;5073100;28;20394;-64
2021/01/22 06:32:41;;;;;;;12.40;7.15;;;;;;;2.82;100.00;99517.69;5073049;28;20398;-64
2021/01/22 06:35:10;;;;;;;10.75;8.20;;;;;;;2.81;100.00;99518.75;5055029;28;20456;-64
2021/01/22 06:37:38;;;;;;;16.67;8.52;;;;;;;2.80;100.00;99514.41;5072984;28;20058;-65
2021/01/22 06:40:04;;;;;;;15.00;8.90;;;;;;;2.79;100.00;99513.59;5073254;28;20106;-64
2021/01/22 06:42:37;;;;;;;17.65;8.93;;;;;;;2.77;100.00;99521.03;5054468;28;20094;-65
2021/01/22 06:45:04;;;;;;;13.77;9.40;;;;;;;2.75;100.00;99527.72;5072727;28;20052;-64
2021/01/22 06:47:30;;;;;;;12.95;8.57;;;;;;;2.71;100.00;99528.16;5072571;28;20471;-65
2021/01/22 06:49:56;;;;;;;11.55;7.63;;;;;;;2.69;100.00;99532.97;5072635;28;20039;-64
2021/01/22 06:52:22;;;;;;;15.85;8.68;;;;;;;2.67;100.00;99535.06;5072508;28;20098;-65
2021/01/22 06:54:56;;;;;;;20.25;9.18;;;;;;;2.69;100.00;99535.66;5072559;28;20029;-64
2021/01/22 06:57:22;;;;;;;;;;;;;;;2.69;100.00;99541.03;5072954;28;20043;-64
2021/01/22 06:59:48;;;;;;;13.43;8.13;;;;;;;2.69;100.00;99549.13;5072250;28;19920;-64
2021/01/22 07:02:32;;;;;;;12.25;7.90;;;;;;;2.71;100.00;99549.72;5072373;28;20493;-65
2021/01/22 07:04:58;;;;;;;14.05;8.20;;;;;;;2.72;100.00;99551.38;5072443;28;20135;-63
2021/01/22 07:07:46;;;;;;;11.57;7.57;;;;;;;2.75;100.00;99554.66;5072780;28;20040;-64
2021/01/22 07:10:12;;;;;;;12.57;8.40;;;;;;;2.73;100.00;99561.09;5072209;28;20033;-64
2021/01/22 07:12:40;;;;;;;14.35;7.53;;;;;;;2.72;100.00;99555.94;5072223;28;20063;-64
2021/01/22 07:15:21;;;;;;;18.13;8.07;;;;;;;2.70;100.00;99553.47;5072156;28;20032;-66
2021/01/22 07:18:00;;;;;;;14.05;8.45;;;;;;;2.70;100.00;99553.47;5072033;28;20028;-64
2021/01/22 07:20:30;;;;;;;14.23;8.15;;;;;;;2.71;100.00;99555.13;5071957;28;20029;-64
2021/01/22 07:23:00;;;;;;;10.00;7.90;;;;;;;2.70;100.00;99552.66;5054092;28;20039;-63
2021/01/22 07:25:36;;;;;;;10.75;7.47;;;;;;;2.71;100.00;99565.91;5071912;28;20064;-64
2021/01/22 07:28:26;;;;;;;16.52;7.57;;;;;;;2.73;100.00;99558.41;5071969;28;20439;-64
2021/01/22 07:30:51;;;;;;;16.95;7.65;;;;;;;2.78;100.00;99575.78;5071110;28;20063;-64
2021/01/22 07:33:26;;;;;;;15.80;7.70;;;;;;;2.79;100.00;99578.28;5071709;28;20028;-65
2021/01/22 07:36:14;;;;;;;12.18;7.15;;;;;;;2.80;100.00;99584.50;5053835;28;20055;-65
2021/01/22 07:38:41;;;;;;;13.98;7.38;;;;;;;2.78;100.00;99581.19;5071495;28;20470;-64
2021/01/22 07:41:08;;;;;;;12.18;6.90;;;;;;;2.73;100.00;99588.06;5071569;28;20110;-64
2021/01/22 07:43:34;;;;;;;15.88;7.07;;;;;;;2.73;100.00;99596.16;5071559;28;20032;-64
2021/01/22 07:46:07;;;;;;;12.57;7.07;;;;;;;2.72;100.00;99599.91;5071558;28;20048;-65
2021/01/22 07:48:34;;;;;;;16.35;7.72;;;;;;;2.71;100.00;99595.56;5071536;28;20032;-65
2021/01/22 07:51:00;;;;;;;11.55;7.13;;;;;;;2.73;100.00;99600.72;5071333;28;20040;-64
2021/01/22 07:53:26;;;;;;;12.30;6.82;;;;;;;2.74;100.00;99599.66;5071448;28;20474;-64
2021/01/22 07:55:53;;;;;;;11.05;7.55;;;;;;;2.77;100.00;99611.88;5071366;28;20046;-66
2021/01/22 07:58:19;;;;;;;15.90;7.65;;;;;;;2.73;100.00;99606.94;5071241;28;20037;-65
2021/01/22 08:00:45;;;;;;;10.48;7.10;;;;;;;2.73;100.00;99612.31;5071271;28;20036;-64
2021/01/22 08:03:13;;;;;;;11.00;7.53;;;;;;;2.72;100.00;99609.84;5071191;28;20040;-66
2021/01/22 08:05:40;;;;;;;14.73;7.38;;;;;;;2.70;100.00;99612.78;5071093;28;20098;-64
2021/01/22 08:08:27;;;;;;;13.15;7.97;;;;;;;2.69;100.00;99616.53;5071241;28;20071;-64
2021/01/22 08:10:54;;;;;;;13.05;7.25;;;;;;;2.70;100.00;99623.56;5071349;28;20036;-66
2021/01/22 08:13:19;;;;;;;11.57;7.22;;;;;;;2.72;100.00;99631.41;5071165;28;20083;-64
2021/01/22 08:15:45;;;;;;;10.32;7.13;;;;;;;2.73;100.00;99633.91;5071119;28;20478;-65
2021/01/22 08:18:13;;;;;;;15.13;7.63;;;;;;;2.76;100.00;99640.72;5071142;28;20040;-65
2021/01/22 08:20:48;;;;;;;16.48;6.97;;;;;;;2.79;100.00;99639.47;5070924;28;20058;-64
2021/01/22 08:23:14;;;;;;;9.07;7.07;;;;;;;2.83;100.00;99621.78;5071086;28;20453;-64
2021/01/22 08:25:40;;;;;;;14.27;7.28;;;;;;;2.84;100.00;99634.22;5070938;28;20037;-65
2021/01/22 08:28:07;;;;;;;12.90;7.55;;;;;;;2.86;100.00;99640.22;5053069;28;20127;-65
2021/01/22 08:30:36;;;;;;;10.65;7.38;;;;;;;2.88;100.00;99643.53;5070811;28;20494;-64
2021/01/22 08:33:03;;;;;;;15.27;7.80;;;;;;;2.91;100.00;99645.78;5071053;28;20561;-65
2021/01/22 08:35:30;;;;;;;11.35;7.22;;;;;;;2.90;100.00;99646.81;5070821;28;20033;-64
2021/01/22 08:37:56;;;;;;;12.38;7.43;;;;;;;2.90;100.00;99644.13;5070816;28;20064;-65
2021/01/22 08:40:39;;;;;;;9.70;7.43;;;;;;;2.88;100.00;99646.22;5070955;28;20033;-65
2021/01/22 08:43:08;;;;;;;11.48;7.88;;;;;;;2.90;100.00;99660.31;5070864;28;20445;-64
2021/01/22 08:45:33;;;;;;;15.98;8.75;;;;;;;2.91;100.00;99659.25;5070669;28;20039;-64
2021/01/22 08:47:59;;;;;;;11.88;7.93;;;;;;;2.94;100.00;99667.72;5070797;28;20394;-64
2021/01/22 08:50:25;;;;;;;13.07;7.38;;;;;;;2.96;100.00;99667.53;5072417;28;20429;-64
2021/01/22 08:53:09;;;;;;;14.82;7.93;;;;;;;2.99;100.00;99669.78;5077390;28;20044;-65
2021/01/22 08:55:36;;;;;;;12.20;8.20;;;;;;;3.05;100.00;99668.88;5059696;28;20036;-64
2021/01/22 08:58:09;;;;;;;14.23;8.27;;;;;;;3.07;100.00;99666.78;5082336;28;20576;-64
2021/01/22 09:00:36;;;;;;;15.40;8.25;;;;;;;3.11;100.00;99672.56;5076181;28;20402;-62
2021/01/22 09:03:02;;;;;;;16.60;7.70;;;;;;;3.17;100.00;99667.09;5080041;28;20501;-63
2021/01/22 09:05:28;;;;;;;11.90;8.10;;;;;;;3.24;100.00;99667.84;5078484;28;20037;-64
2021/01/22 09:08:08;;;;;;;15.23;7.50;;;;;;;3.31;100.00;99676.72;5077124;28;20441;-63
2021/01/22 09:10:35;;;;;;;17.90;9.70;;;;;;;3.37;100.00;99674.16;5079959;28;20133;-62
2021/01/22 09:13:14;;;;;;;18.60;9.68;;;;;;;3.43;100.00;99675.97;5085115;28;20036;-62
2021/01/22 09:15:40;;;;;;;19.77;10.10;;;;;;;3.46;100.00;99675.50;5076567;28;20143;-63
2021/01/22 09:18:23;;;;;;;33.70;11.10;;;;;;;3.51;100.00;99675.69;5077439;28;20459;-66
2021/01/22 09:21:03;;;;;;;22.17;12.65;;;;;;;3.54;100.00;99686.03;5056977;28;20467;-63
2021/01/22 09:23:30;;;;;;;23.08;12.65;;;;;;;3.56;100.00;99684.75;5068528;28;20033;-63
2021/01/22 09:25:56;;;;;;;27.38;14.80;;;;;;;3.59;100.00;99697.78;5075678;28;20460;-63
2021/01/22 09:28:22;;;;;;;23.00;11.40;;;;;;;3.61;100.00;99700.25;5089930;28;20127;-63
2021/01/22 09:30:47;;;;;;;17.60;9.93;;;;;;;3.64;100.00;99699.81;5076424;28;20132;-64
2021/01/22 09:33:14;;;;;;;17.55;8.38;;;;;;;3.69;100.00;99704.56;5076713;28;20039;-65
2021/01/22 09:35:40;;;;;;;23.70;10.70;;;;;;;3.68;100.00;99703.72;5077940;28;20113;-66
2021/01/22 09:38:06;;;;;;;18.58;9.90;;;;;;;3.71;100.00;99705.97;5078188;28;20119;-63
2021/01/22 09:40:32;;;;;;;15.55;7.95;;;;;;;3.71;100.00;99703.28;5058530;28;20048;-62
2021/01/22 09:42:58;;;;;;;16.70;7.80;;;;;;;3.72;100.00;99696.81;5072491;28;20040;-63
2021/01/22 09:45:23;;;;;;;12.88;7.15;;;;;;;3.79;100.00;99692.16;5083172;28;20039;-65
2021/01/22 09:47:49;;;;;;;17.98;8.30;;;;;;;3.85;100.00;99688.56;5075994;28;20082;-64
2021/01/22 09:50:17;;;;;;;19.60;9.40;;;;;;;3.94;100.00;99684.50;5074339;28;20135;-63
2021/01/22 09:52:43;;;;;;;19.27;9.35;;;;;;;4.05;100.00;99690.19;5079418;28;20024;-64
2021/01/22 09:55:13;;;;;;;19.67;10.73;;;;;;;4.16;100.00;99686.69;5079358;28;20044;-63
2021/01/22 09:57:39;;;;;;;17.45;10.38;;;;;;;4.29;100.00;99691.09;5077514;28;20033;-67
2021/01/22 10:00:07;;;;;;;25.05;12.55;;;;;;;4.40;100.00;99699.25;5081216;28;20114;-66
2021/01/22 10:02:33;;;;;;;20.08;11.00;;;;;;;4.54;100.00;99683.69;5074405;28;20078;-69
2021/01/22 10:04:59;;;;;;;22.45;11.93;;;;;;;4.72;100.00;99691.72;5055554;28;20525;-67
2021/01/22 10:07:25;;;;;;;19.92;10.63;;;;;;;4.86;100.00;99697.75;5072755;28;20024;-65
2021/01/22 10:09:51;;;;;;;18.70;10.07;;;;;;;5.00;100.00;99704.56;5080142;28;20028;-68
2021/01/22 10:12:16;;;;;;;18.02;10.88;;;;;;;5.03;100.00;99725.75;5078755;28;20066;-64
2021/01/22 10:14:42;;;;;;;18.73;8.40;;;;;;;5.04;100.00;99732.81;5074291;28;20044;-70
2021/01/22 10:17:08;;;;;;;19.17;9.07;;;;;;;4.98;100.00;99716.69;5075493;28;20119;-68
2021/01/22 10:19:34;;;;;;;11.13;5.95;;;;;;;4.99;100.00;99713.72;5074033;28;20490;-66
2021/01/22 10:21:59;;;;;;;10.57;4.88;;;;;;;4.99;100.00;99713.72;5076141;28;20040;-68
2021/01/22 10:24:25;;;;;;;14.68;4.40;;;;;;;5.11;100.00;99717.28;5072742;28;20045;-66
2021/01/22 10:26:50;;;;;;;10.73;5.30;;;;;;;5.23;100.00;99724.59;5071314;28;20032;-67
2021/01/22 10:29:17;;;;;;;9.23;5.00;;;;;;;5.34;100.00;99721.06;5080076;28;20034;-69
2021/01/22 10:31:43;;;;;;;16.17;5.20;;;;;;;5.42;100.00;99723.41;5084006;28;20131;-66
2021/01/22 10:34:09;;;;;;;8.50;5.50;;;;;;;5.50;100.00;99723.06;5076577;28;20468;-67
2021/01/22 10:36:35;;;;;;;11.25;7.00;;;;;;;5.56;100.00;99724.84;5071093;28;20094;-69
2021/01/22 10:39:01;;;;;;;12.23;5.72;;;;;;;5.62;100.00;99723.06;5053935;28;20032;-66
2021/01/22 10:41:27;;;;;;;11.23;5.85;;;;;;;5.71;100.00;99730.56;5080288;28;20127;-67
2021/01/22 10:43:52;;;;;;;12.63;5.93;;;;;;;5.83;100.00;99724.31;5072659;28;20187;-67
2021/01/22 10:46:18;;;;;;;10.90;5.57;;;;;;;5.96;100.00;99724.91;5076363;28;20125;-70
2021/01/22 10:48:43;;;;;;;12.65;5.43;;;;;;;6.13;100.00;99726.88;5072279;28;20045;-65
2021/01/22 10:51:09;;;;;;;13.20;6.00;;;;;;;6.28;100.00;99738.84;5078439;28;20024;-64
2021/01/22 10:53:35;;;;;;;10.13;4.25;;;;;;;6.43;100.00;99729.38;5057666;28;20059;-64
2021/01/22 10:56:02;;;;;;;10.23;3.67;;;;;;;6.56;100.00;99726.34;5072865;28;20040;-65
2021/01/22 10:58:27;;;;;;;8.27;4.00;;;;;;;6.67;100.00;99722.75;5078420;28;20391;-65
2021/01/22 11:00:53;;;;;;;6.13;3.67;;;;;;;6.72;100.00;99722.00;5077181;28;20135;-66
2021/01/22 11:03:19;;;;;;;8.32;4.28;;;;;;;6.89;100.00;99718.25;5069332;28;20034;-66
2021/01/22 11:05:45;;;;;;;8.07;4.30;;;;;;;7.08;100.00;99720.72;5071183;28;20486;-68
2021/01/22 11:08:10;;;;;;;8.15;3.10;;;;;;;7.31;100.00;99742.31;5080423;28;20356;-64
2021/01/22 11:10:36;;;;;;;5.53;3.47;;;;;;;7.22;100.00;99733.72;5073234;28;20127;-65
2021/01/22 11:13:03;;;;;;;7.38;3.13;;;;;;;7.12;100.00;99738.19;5071571;28;20043;-65
2021/01/22 11:15:30;;;;;;;4.80;1.98;;;;;;;7.06;100.00;99717.44;5071805;28;20376;-64
2021/01/22 11:17:56;;;;;;;7.20;2.90;;;;;;;7.02;100.00;99716.28;5072013;28;20123;-65
2021/01/22 11:20:21;;;;;;;4.97;2.88;;;;;;;7.08;100.00;99715.28;5071929;28;20036;-65
2021/01/22 11:22:47;;;;;;;4.63;2.47;;;;;;;7.20;100.00;99718.75;5072048;28;20040;-65
2021/01/22 11:25:17;;;;;;;5.25;2.20;;;;;;;7.31;100.00;99715.16;5072114;28;20043;-65
2021/01/22 11:27:43;;;;;;;3.70;2.65;;;;;;;7.38;100.00;99721.22;5072075;28;20035;-65
2021/01/22 11:30:10;;;;;;;3.95;1.52;;;;;;;7.50;100.00;99719.22;5071930;28;20078;-65
2021/01/22 11:32:37;;;;;;;4.40;1.60;;;;;;;7.65;100.00;99720.53;5071922;28;20056;-65